Time;durP1;ratioP1;P1;durP2;ratioP2;P2;SDS_P1;SDS_P2;PMS_P1;PMS_P2;Temp;Humidity;BMP_temperature;BMP_pressure;BME280_temperature;BME280_humidity;BME280_pressure;Samples;Min_cycle;Max_cycle;Signal;HPM_P1;HPM_P2
2023/05/21 00:02:16;;;;;;;20.05;8.80;;;;;;;12.33;86.31;99309.16;4919602;29;20107;-91
2023/05/21 00:04:45;;;;;;;16.92;9.55;;;;;;;12.27;86.42;99291.38;4905093;29;20039;-89
2023/05/21 00:07:11;;;;;;;19.92;9.60;;;;;;;12.26;86.79;99291.66;4922628;29;20584;-89
2023/05/21 00:09:39;;;;;;;16.52;9.30;;;;;;;12.38;87.01;99304.81;4938100;29;20099;-89
2023/05/21 00:12:05;;;;;;;16.63;10.13;;;;;;;12.36;87.10;99301.56;4922801;29;20063;-89
2023/05/21 00:14:31;;;;;;;20.35;9.40;;;;;;;12.36;86.64;99298.88;4906030;29;20486;-89
2023/05/21 00:16:56;;;;;;;13.82;9.52;;;;;;;12.24;87.00;99289.25;4922309;29;20032;-89
2023/05/21 00:19:22;;;;;;;13.60;8.65;;;;;;;11.99;87.27;99276.72;4922162;29;20055;-89
2023/05/21 00:21:47;;;;;;;13.52;8.05;;;;;;;12.02;87.75;99283.47;4938447;29;20481;-89
2023/05/21 00:24:13;;;;;;;18.27;9.40;;;;;;;11.86;87.54;99264.63;4938351;29;20030;-89
2023/05/21 00:26:38;;;;;;;16.23;8.70;;;;;;;11.98;87.46;99280.53;4937697;29;20043;-89
2023/05/21 00:29:03;;;;;;;17.52;11.90;;;;;;;12.00;87.39;99282.94;4938099;29;20503;-90
2023/05/21 00:31:31;;;;;;;15.55;9.52;;;;;;;11.94;87.32;99279.47;4922444;29;20039;-90
2023/05/21 00:33:56;;;;;;;15.60;9.45;;;;;;;11.89;87.50;99274.91;4937902;29;20039;-89
2023/05/21 00:36:22;;;;;;;16.27;10.07;;;;;;;12.03;87.45;99285.06;4937175;29;20027;-89
2023/05/21 00:38:49;;;;;;;13.43;8.77;;;;;;;11.96;87.73;99280.00;4922463;29;20467;-89
2023/05/21 00:41:15;;;;;;;15.98;9.32;;;;;;;11.88;88.02;99275.97;4906123;29;20118;-89
2023/05/21 00:43:40;;;;;;;16.10;10.38;;;;;;;11.99;87.86;99294.81;4906600;29;20506;-90
2023/05/21 00:46:11;;;;;;;17.92;10.40;;;;;;;11.98;88.69;99288.63;4921986;29;20020;-90
2023/05/21 00:48:38;;;;;;;17.80;10.85;;;;;;;11.98;88.39;99280.53;4905980;29;20494;-91
2023/05/21 00:51:04;;;;;;;18.98;10.15;;;;;;;12.08;88.11;99293.94;4905633;29;20035;-90
2023/05/21 00:53:30;;;;;;;18.67;10.50;;;;;;;12.07;87.86;99284.22;4921650;29;20028;-90
2023/05/21 00:55:56;;;;;;;16.60;10.38;;;;;;;12.01;88.58;99289.94;4905572;29;20035;-90
2023/05/21 00:58:21;;;;;;;18.50;10.23;;;;;;;12.00;87.51;99267.56;4922069;29;20028;-91
2023/05/21 01:00:47;;;;;;;15.07;9.77;;;;;;;12.02;87.97;99262.69;4905648;29;20047;-90
2023/05/21 01:03:12;;;;;;;22.23;10.75;;;;;;;11.98;87.80;99250.84;4921747;29;20458;-90
2023/05/21 01:05:38;;;;;;;21.50;10.85;;;;;;;11.99;87.41;99243.53;4905819;29;20024;-90
2023/05/21 01:08:03;;;;;;;18.65;11.10;;;;;;;12.10;86.83;99248.59;4905376;29;20028;-91
2023/05/21 01:10:29;;;;;;;16.95;10.25;;;;;;;12.17;87.24;99261.75;4906245;29;20031;-91
2023/05/21 01:12:56;;;;;;;17.63;9.60;;;;;;;11.95;87.64;99254.06;4921803;29;20032;-90
2023/05/21 01:15:22;;;;;;;20.08;10.35;;;;;;;12.04;86.81;99265.09;4905156;29;20059;-90
2023/05/21 01:17:47;;;;;;;17.48;10.40;;;;;;;11.92;86.76;99251.97;4904733;29;20097;-90
2023/05/21 01:20:19;;;;;;;17.23;10.45;;;;;;;12.07;87.12;99267.22;4920801;29;20035;-90
2023/05/21 01:23:02;;;;;;;;;;;;;;;12.15;87.24;99284.72;4921027;29;20038;-90
2023/05/21 01:25:28;;;;;;;22.67;10.50;;;;;;;11.87;86.94;99263.56;4921079;29;19957;-90
2023/05/21 01:27:53;;;;;;;18.20;10.75;;;;;;;11.76;87.84;99264.69;4904854;29;20031;-90
2023/05/21 01:30:20;;;;;;;19.45;10.38;;;;;;;11.95;87.88;99282.97;4920436;29;20056;-89
2023/05/21 01:33:11;;;;;;;18.52;9.88;;;;;;;12.02;87.61;99284.28;4936798;29;20023;-90
2023/05/21 01:35:39;;;;;;;16.30;9.70;;;;;;;11.92;87.43;99266.25;4920440;29;20031;-90
2023/05/21 01:38:19;;;;;;;16.90;9.98;;;;;;;11.98;87.26;99267.03;4905335;29;20039;-90
2023/05/21 01:40:50;;;;;;;18.90;9.77;;;;;;;11.93;87.10;99256.25;4905257;29;20038;-90
2023/05/21 01:43:16;;;;;;;22.67;10.07;;;;;;;12.09;86.64;99275.84;4904517;29;20062;-90
2023/05/21 01:45:41;;;;;;;18.40;10.15;;;;;;;11.97;86.99;99248.41;4921613;29;20510;-90
2023/05/21 01:48:08;;;;;;;17.77;9.38;;;;;;;12.03;86.65;99260.78;4888863;29;20094;-90
2023/05/21 01:50:34;;;;;;;17.80;10.63;;;;;;;11.91;86.88;99243.06;4888252;29;20039;-91
2023/05/21 01:52:59;;;;;;;18.10;10.40;;;;;;;11.99;86.83;99254.34;4889019;29;20459;-90
2023/05/21 01:55:26;;;;;;;23.17;11.20;;;;;;;11.98;86.85;99242.75;4889087;29;20034;-91
2023/05/21 01:57:53;;;;;;;20.77;10.18;;;;;;;12.01;86.19;99242.16;4905186;29;20035;-90
2023/05/21 02:00:22;;;;;;;17.67;11.40;;;;;;;11.96;86.59;99239.50;4888723;29;20028;-90
2023/05/21 02:02:48;;;;;;;16.67;11.25;;;;;;;11.96;87.15;99244.13;4905439;29;20019;-91
2023/05/21 02:05:13;;;;;;;19.42;12.48;;;;;;;12.10;86.54;99261.28;4888943;29;20099;-90
2023/05/21 02:07:39;;;;;;;22.75;12.40;;;;;;;12.08;86.56;99248.06;4920179;29;20458;-90
2023/05/21 02:10:06;;;;;;;23.15;13.25;;;;;;;12.16;85.50;99243.13;4903896;29;20114;-91
2023/05/21 02:12:32;;;;;;;23.35;11.60;;;;;;;12.28;85.68;99243.59;4903895;29;20130;-90
2023/05/21 02:14:57;;;;;;;25.27;12.38;;;;;;;12.32;85.66;99250.81;4904157;29;20114;-90
2023/05/21 02:17:29;;;;;;;18.50;11.57;;;;;;;12.28;86.04;99248.97;4920265;29;20032;-90
2023/05/21 02:19:54;;;;;;;20.90;11.68;;;;;;;12.37;85.09;99241.06;4890058;29;20035;-90
2023/05/21 02:22:20;;;;;;;20.50;10.80;;;;;;;12.25;85.93;99242.25;4888142;29;20051;-90
2023/05/21 02:24:46;;;;;;;23.38;11.05;;;;;;;12.39;85.97;99247.81;4919597;29;20031;-90
2023/05/21 02:27:12;;;;;;;24.92;12.45;;;;;;;12.33;85.82;99240.84;4919554;29;20039;-90
2023/05/21 02:29:38;;;;;;;18.95;10.70;;;;;;;12.49;84.93;99247.75;4903816;29;20442;-90
2023/05/21 02:32:04;;;;;;;18.60;11.25;;;;;;;12.52;84.74;99243.66;4903244;29;20038;-90
2023/05/21 02:34:31;;;;;;;28.20;11.35;;;;;;;12.61;84.18;99244.63;4888209;29;20067;-90
2023/05/21 02:36:57;;;;;;;25.35;11.60;;;;;;;12.55;84.18;99229.56;4911460;29;20027;-90
2023/05/21 02:39:23;;;;;;;26.77;11.27;;;;;;;12.61;84.49;99239.22;4938936;29;20027;-90
2023/05/21 02:41:48;;;;;;;18.20;9.80;;;;;;;12.70;83.93;99256.44;4938483;29;20550;-89
2023/05/21 02:44:14;;;;;;;23.00;10.77;;;;;;;12.64;84.30;99241.38;4923351;29;20023;-89
2023/05/21 02:46:39;;;;;;;23.13;10.80;;;;;;;12.65;83.89;99234.88;4921688;29;20027;-89
2023/05/21 02:49:05;;;;;;;13.85;9.05;;;;;;;12.63;83.71;99231.66;4922709;29;20031;-89
2023/05/21 02:51:30;;;;;;;18.60;10.27;;;;;;;12.51;84.30;99237.47;4907044;29;20082;-89
2023/05/21 02:53:56;;;;;;;21.00;12.73;;;;;;;12.48;85.10;99248.00;4907271;29;20078;-89
2023/05/21 02:56:22;;;;;;;21.45;11.52;;;;;;;12.42;85.46;99241.84;4922921;29;20039;-89
2023/05/21 02:58:47;;;;;;;22.58;12.07;;;;;;;12.49;85.44;99261.25;4937675;29;20114;-89
2023/05/21 03:01:13;;;;;;;25.73;11.50;;;;;;;12.41;85.45;99242.13;4906996;29;20034;-89
2023/05/21 03:03:38;;;;;;;22.85;11.70;;;;;;;12.43;85.78;99248.88;4922508;29;20035;-89
2023/05/21 03:06:04;;;;;;;20.02;10.88;;;;;;;12.45;85.40;99245.88;4938088;29;20062;-89
2023/05/21 03:08:30;;;;;;;14.18;9.68;;;;;;;12.45;85.04;99249.41;4938767;29;20545;-91
2023/05/21 03:10:56;;;;;;;15.75;9.88;;;;;;;12.45;85.20;99248.56;4922353;29;20042;-89
2023/05/21 03:13:21;;;;;;;19.63;10.60;;;;;;;12.40;85.35;99248.63;4906446;29;20035;-88
2023/05/21 03:15:47;;;;;;;16.23;11.45;;;;;;;12.35;85.02;99241.38;4922432;29;20024;-89
2023/05/21 03:18:15;;;;;;;16.55;10.60;;;;;;;12.42;84.85;99241.84;4922127;29;20031;-89
2023/05/21 03:20:43;;;;;;;18.25;10.90;;;;;;;12.39;85.13;99247.00;4922378;29;20056;-89
2023/05/21 03:23:11;;;;;;;20.80;9.85;;;;;;;12.47;85.21;99254.50;4938937;29;20035;-89
2023/05/21 03:25:37;;;;;;;23.40;10.40;;;;;;;12.48;84.21;99243.41;4955500;29;20113;-89
2023/05/21 03:28:02;;;;;;;20.83;11.30;;;;;;;12.36;84.66;99236.78;4938145;29;20027;-89
2023/05/21 03:30:28;;;;;;;20.23;10.70;;;;;;;12.45;84.41;99253.97;4921711;29;20081;-89
2023/05/21 03:32:55;;;;;;;17.60;10.63;;;;;;;12.57;83.72;99251.69;4937990;29;20035;-90
2023/05/21 03:35:20;;;;;;;16.85;10.50;;;;;;;12.78;83.26;99267.72;4923121;29;20054;-89
2023/05/21 03:37:46;;;;;;;17.35;11.35;;;;;;;12.48;83.99;99240.72;4955666;29;20023;-88
2023/05/21 03:40:12;;;;;;;21.23;12.35;;;;;;;12.51;84.45;99255.53;4922066;29;20387;-91
2023/05/21 03:42:37;;;;;;;24.23;11.48;;;;;;;12.54;84.54;99247.69;4922770;29;20035;-91
2023/05/21 03:45:23;;;;;;;23.48;11.73;;;;;;;12.68;84.66;99277.53;4923024;29;20031;-91
2023/05/21 03:47:49;;;;;;;22.30;12.15;;;;;;;12.71;84.73;99285.06;4922546;29;20043;-91
2023/05/21 03:50:15;;;;;;;19.95;11.63;;;;;;;12.60;84.32;99255.75;4923477;29;20027;-91
2023/05/21 03:52:41;;;;;;;20.73;11.75;;;;;;;12.56;84.36;99238.50;4922544;29;20412;-89
2023/05/21 03:55:07;;;;;;;15.10;10.15;;;;;;;12.79;83.88;99256.63;4922393;29;20106;-90
2023/05/21 03:57:32;;;;;;;17.52;11.20;;;;;;;12.73;84.38;99258.56;4906235;29;20035;-90
2023/05/21 03:59:57;;;;;;;21.48;10.65;;;;;;;12.87;84.04;99257.91;4938089;29;20027;-89
2023/05/21 04:02:26;;;;;;;25.63;11.65;;;;;;;12.89;84.22;99261.13;4906454;29;20038;-90
2023/05/21 04:04:52;;;;;;;18.08;9.77;;;;;;;12.99;84.08;99261.03;4922183;29;20063;-89
2023/05/21 04:07:18;;;;;;;12.40;8.60;;;;;;;13.06;83.46;99264.19;4938612;29;20039;-90
2023/05/21 04:09:44;;;;;;;12.77;8.45;;;;;;;13.18;83.15;99261.06;4924020;29;20031;-90
2023/05/21 04:12:10;;;;;;;15.35;8.57;;;;;;;13.12;83.58;99236.00;4925520;29;20405;-89
2023/05/21 04:14:38;;;;;;;13.90;7.97;;;;;;;13.39;82.98;99260.88;4926493;29;20039;-90
2023/05/21 04:17:04;;;;;;;13.63;8.00;;;;;;;13.36;82.29;99234.38;4926167;29;20118;-89
2023/05/21 04:19:33;;;;;;;16.45;8.63;;;;;;;13.41;81.60;99250.56;4925970;29;20033;-90
2023/05/21 04:21:58;;;;;;;13.80;8.32;;;;;;;13.32;83.13;99245.78;4909287;29;20035;-88
2023/05/21 04:24:24;;;;;;;13.98;7.78;;;;;;;13.34;83.25;99251.72;4909285;29;20553;-89
2023/05/21 04:26:49;;;;;;;18.75;8.77;;;;;;;13.41;82.56;99256.78;4924724;29;20031;-88
2023/05/21 04:29:20;;;;;;;12.77;8.07;;;;;;;13.49;82.88;99258.84;4908873;29;20050;-90
2023/05/21 04:31:48;;;;;;;12.60;7.40;;;;;;;13.54;82.60;99252.53;4910799;29;20058;-89
2023/05/21 04:34:17;;;;;;;14.40;8.13;;;;;;;13.56;82.83;99272.00;4925201;29;20457;-89
2023/05/21 04:36:46;;;;;;;14.93;8.63;;;;;;;13.61;82.17;99273.81;4909468;29;20035;-89
2023/05/21 04:39:13;;;;;;;15.02;9.40;;;;;;;13.51;82.52;99262.06;4925210;29;20031;-89
2023/05/21 04:41:38;;;;;;;15.25;9.55;;;;;;;13.51;82.43;99266.66;4909529;29;20031;-89
2023/05/21 04:44:07;;;;;;;17.17;9.23;;;;;;;13.61;81.46;99269.22;4925170;29;20459;-89
2023/05/21 04:46:33;;;;;;;16.80;8.85;;;;;;;13.86;80.33;99273.50;4909008;29;20098;-89
2023/05/21 04:49:01;;;;;;;13.38;8.73;;;;;;;13.98;79.69;99254.06;4908242;29;20027;-89
2023/05/21 04:51:27;;;;;;;14.02;8.57;;;;;;;14.06;79.49;99258.03;4939906;29;20114;-89
2023/05/21 04:53:53;;;;;;;13.90;8.90;;;;;;;14.00;79.84;99240.25;4907967;29;20401;-89
2023/05/21 04:56:18;;;;;;;14.95;8.95;;;;;;;14.02;80.43;99252.41;4908357;29;20019;-89
2023/05/21 04:58:48;;;;;;;22.50;9.20;;;;;;;14.20;80.06;99264.31;4908931;29;20028;-89
2023/05/21 05:01:17;;;;;;;18.23;10.25;;;;;;;14.19;80.29;99265.41;4909269;29;20126;-89
2023/05/21 05:03:44;;;;;;;23.92;12.18;;;;;;;14.14;80.83;99257.38;4909141;29;20509;-90
2023/05/21 05:06:10;;;;;;;15.82;9.07;;;;;;;14.26;80.47;99270.47;4921474;29;20024;-89
2023/05/21 05:08:35;;;;;;;14.32;9.25;;;;;;;14.29;80.44;99269.84;4921732;29;20486;-89
2023/05/21 05:11:01;;;;;;;16.30;9.27;;;;;;;14.42;79.64;99269.13;4924756;29;20031;-89
2023/05/21 05:13:27;;;;;;;19.27;10.65;;;;;;;14.33;79.98;99254.63;4924493;29;20050;-90
2023/05/21 05:15:52;;;;;;;21.40;10.50;;;;;;;14.28;79.77;99257.44;4940631;29;20031;-90
2023/05/21 05:18:18;;;;;;;15.32;10.43;;;;;;;14.29;80.11;99251.69;4940152;29;20375;-89
2023/05/21 05:20:44;;;;;;;16.50;10.32;;;;;;;14.22;80.32;99250.50;4923509;29;20034;-90
2023/05/21 05:23:09;;;;;;;16.20;10.55;;;;;;;14.55;79.77;99262.13;4939488;29;20089;-90
2023/05/21 05:25:35;;;;;;;15.93;9.35;;;;;;;14.59;79.60;99240.66;4923786;29;20401;-90
2023/05/21 05:28:00;;;;;;;17.98;9.20;;;;;;;14.62;78.93;99240.88;4923662;29;20042;-90
2023/05/21 05:30:26;;;;;;;16.50;9.43;;;;;;;14.90;78.13;99251.75;4923693;29;20054;-89
2023/05/21 05:32:51;;;;;;;13.63;8.23;;;;;;;15.07;76.78;99235.72;4923980;29;20030;-91
2023/05/21 05:35:17;;;;;;;12.43;8.02;;;;;;;15.27;76.12;99244.53;4924544;29;20497;-90
2023/05/21 05:37:42;;;;;;;12.38;7.13;;;;;;;15.18;76.51;99246.34;4940067;29;20031;-90
2023/05/21 05:40:08;;;;;;;10.20;7.05;;;;;;;15.32;76.61;99258.78;4924865;29;20035;-89
2023/05/21 05:42:33;;;;;;;13.15;7.38;;;;;;;15.33;77.22;99243.31;4924943;29;20035;-90
2023/05/21 05:44:59;;;;;;;14.05;8.65;;;;;;;15.29;78.75;99243.13;4924289;29;20398;-89
2023/05/21 05:47:25;;;;;;;19.58;9.35;;;;;;;15.35;78.89;99252.75;4923962;29;20038;-90
2023/05/21 05:49:50;;;;;;;16.02;9.32;;;;;;;15.45;79.18;99254.47;4924059;29;20035;-88
2023/05/21 05:52:16;;;;;;;21.60;10.25;;;;;;;15.52;78.42;99254.03;4923932;29;20031;-90
2023/05/21 05:54:41;;;;;;;20.10;10.52;;;;;;;15.49;77.86;99241.88;4939791;29;20031;-90
2023/05/21 05:57:06;;;;;;;18.33;10.55;;;;;;;15.43;78.24;99243.09;4939341;29;20015;-89
2023/05/21 05:59:32;;;;;;;14.80;9.23;;;;;;;15.65;77.33;99258.66;4956269;29;20116;-88
2023/05/21 06:02:01;;;;;;;17.60;9.23;;;;;;;15.67;77.01;99252.94;4939582;29;20028;-90
2023/05/21 06:04:28;;;;;;;14.07;10.13;;;;;;;15.70;77.25;99241.44;4923549;29;20500;-89
2023/05/21 06:06:56;;;;;;;16.48;11.00;;;;;;;15.66;78.36;99252.09;4939781;29;20414;-89
2023/05/21 06:09:22;;;;;;;21.40;10.77;;;;;;;15.63;78.81;99252.72;4940375;29;20063;-89
2023/05/21 06:11:47;;;;;;;22.02;10.57;;;;;;;15.70;78.62;99257.72;4924360;29;20043;-89
2023/05/21 06:14:13;;;;;;;20.73;11.50;;;;;;;15.80;78.88;99257.53;4936177;29;20039;-89
2023/05/21 06:16:38;;;;;;;14.82;10.45;;;;;;;15.71;78.65;99246.59;4904699;29;20466;-89
2023/05/21 06:19:04;;;;;;;17.55;10.35;;;;;;;15.84;78.64;99250.38;4921041;29;20394;-90
2023/05/21 06:21:30;;;;;;;12.85;9.57;;;;;;;15.82;77.82;99241.75;4905165;29;20032;-89
2023/05/21 06:23:55;;;;;;;17.20;10.48;;;;;;;16.04;77.63;99260.00;4929670;29;20050;-90
2023/05/21 06:26:20;;;;;;;18.95;9.60;;;;;;;16.03;77.36;99246.72;4904754;29;20402;-89
2023/05/21 06:28:46;;;;;;;17.60;10.57;;;;;;;15.95;78.12;99238.16;4888820;29;20537;-90
2023/05/21 06:31:12;;;;;;;14.95;9.70;;;;;;;16.05;78.09;99236.34;4889085;29;20462;-90
2023/05/21 06:33:37;;;;;;;14.02;9.27;;;;;;;16.17;78.21;99231.16;4904092;29;20475;-90
2023/05/21 06:36:03;;;;;;;17.23;9.30;;;;;;;16.22;77.05;99239.19;4892979;29;20117;-89
2023/05/21 06:38:28;;;;;;;13.45;8.82;;;;;;;16.37;76.74;99243.41;4901053;29;20070;-88
2023/05/21 06:40:54;;;;;;;12.07;8.02;;;;;;;16.69;75.17;99238.81;4891567;29;20039;-90
2023/05/21 06:43:20;;;;;;;15.73;8.65;;;;;;;16.61;77.58;99237.66;4888374;29;20035;-90
2023/05/21 06:45:45;;;;;;;13.98;9.25;;;;;;;16.72;75.96;99235.47;4888258;29;20123;-90
2023/05/21 06:48:15;;;;;;;11.70;7.72;;;;;;;16.51;75.77;99211.53;4903264;29;20039;-90
2023/05/21 06:50:41;;;;;;;9.88;7.93;;;;;;;16.57;74.97;99215.72;4904646;29;20106;-90
2023/05/21 06:53:07;;;;;;;13.68;8.32;;;;;;;16.70;74.62;99219.47;4887997;29;20031;-91
2023/05/21 06:55:34;;;;;;;9.90;7.57;;;;;;;16.75;74.12;99215.81;4903753;29;20082;-90
2023/05/21 06:58:00;;;;;;;14.15;8.75;;;;;;;16.90;74.16;99239.09;4918754;29;20174;-90
2023/05/21 07:00:25;;;;;;;14.05;8.25;;;;;;;17.10;74.00;99235.00;4888155;29;20478;-90
2023/05/21 07:02:53;;;;;;;10.77;8.18;;;;;;;17.21;73.66;99217.28;4903362;29;20102;-91
2023/05/21 07:05:19;;;;;;;10.73;8.50;;;;;;;17.17;74.24;99214.38;4904093;29;20410;-91
2023/05/21 07:07:44;;;;;;;15.25;8.23;;;;;;;17.42;72.89;99236.53;4919141;29;20039;-90
2023/05/21 07:10:10;;;;;;;15.43;8.45;;;;;;;17.50;72.51;99219.44;4884640;29;20468;-91
2023/05/21 07:12:36;;;;;;;18.00;8.38;;;;;;;17.89;73.57;99231.34;4931715;29;20031;-90
2023/05/21 07:15:01;;;;;;;13.25;8.15;;;;;;;17.69;72.85;99221.84;4906618;29;20549;-91
2023/05/21 07:17:27;;;;;;;18.60;7.80;;;;;;;17.88;72.38;99220.75;4909677;29;20046;-91
2023/05/21 07:19:52;;;;;;;10.90;6.45;;;;;;;18.12;69.14;99215.63;4907914;29;20031;-91
2023/05/21 07:22:18;;;;;;;8.82;6.13;;;;;;;18.48;66.90;99213.63;4906715;29;20027;-90
2023/05/21 07:24:43;;;;;;;11.20;6.28;;;;;;;18.58;67.75;99202.38;4906217;29;20094;-90
2023/05/21 07:27:09;;;;;;;7.80;5.70;;;;;;;18.81;66.67;99211.13;4906861;29;20039;-90
2023/05/21 07:29:37;;;;;;;7.40;6.18;;;;;;;18.61;66.15;99215.34;4906972;29;20047;-90
2023/05/21 07:32:02;;;;;;;11.13;5.97;;;;;;;18.81;64.81;99218.53;4938597;29;20129;-91
2023/05/21 07:34:28;;;;;;;7.63;5.57;;;;;;;18.73;65.04;99204.56;4922250;29;20039;-90
2023/05/21 07:36:54;;;;;;;9.85;5.70;;;;;;;18.86;63.80;99208.22;4909551;29;20113;-96
2023/05/21 07:39:19;;;;;;;8.68;6.20;;;;;;;18.67;65.23;99199.59;4909715;29;20034;-95
2023/05/21 07:41:45;;;;;;;7.70;5.97;;;;;;;18.79;65.50;99216.13;4928061;29;20023;-94
2023/05/21 07:44:10;;;;;;;12.75;6.25;;;;;;;18.72;65.57;99216.59;4911853;29;20033;-94
2023/05/21 07:46:36;;;;;;;8.40;6.05;;;;;;;18.77;65.44;99194.59;4913770;29;20038;-94
2023/05/21 07:49:02;;;;;;;11.48;6.68;;;;;;;18.84;64.24;99206.94;4913189;29;20039;-96
2023/05/21 07:51:27;;;;;;;6.55;5.47;;;;;;;18.95;63.65;99217.19;4928768;29;20039;-96
2023/05/21 07:53:53;;;;;;;7.40;5.63;;;;;;;19.00;63.37;99213.47;4912574;29;20058;-95
2023/05/21 07:56:18;;;;;;;10.20;5.45;;;;;;;18.95;64.14;99189.91;4912697;29;20417;-96
2023/05/21 07:58:44;;;;;;;11.85;6.47;;;;;;;18.85;67.18;99176.63;4914484;29;20038;-95
2023/05/21 08:01:10;;;;;;;12.02;5.20;;;;;;;19.14;63.94;99203.13;4912021;29;20030;-95
2023/05/21 08:03:36;;;;;;;8.00;5.43;;;;;;;18.97;63.31;99184.13;4913439;29;20054;-96
2023/05/21 08:06:01;;;;;;;7.70;5.75;;;;;;;18.88;62.95;99180.63;4912807;29;20062;-96
2023/05/21 08:08:27;;;;;;;9.32;5.20;;;;;;;18.95;61.47;99200.81;4912990;29;20035;-96
2023/05/21 08:10:53;;;;;;;7.07;4.97;;;;;;;18.96;62.04;99204.31;4913297;29;20090;-94
2023/05/21 08:13:21;;;;;;;9.27;4.78;;;;;;;18.73;60.84;99188.19;4913140;29;20038;-94
2023/05/21 08:15:47;;;;;;;7.03;5.03;;;;;;;18.83;61.25;99184.34;4912494;29;20032;-95
2023/05/21 08:18:17;;;;;;;7.60;4.90;;;;;;;18.95;61.31;99175.47;4916688;29;20137;-95
2023/05/21 08:20:42;;;;;;;8.07;5.05;;;;;;;19.06;60.97;99176.66;4929818;29;20050;-95
2023/05/21 08:23:08;;;;;;;7.47;4.95;;;;;;;19.07;60.62;99191.09;4913117;29;20031;-96
2023/05/21 08:25:33;;;;;;;8.02;4.40;;;;;;;19.19;59.11;99183.00;4913223;29;20023;-96
2023/05/21 08:27:59;;;;;;;6.25;4.20;;;;;;;19.31;57.65;99196.75;4912750;29;20086;-94
2023/05/21 08:30:24;;;;;;;5.50;3.60;;;;;;;19.37;55.39;99200.09;4912417;29;20051;-95
2023/05/21 08:32:50;;;;;;;10.13;3.97;;;;;;;19.46;52.99;99203.53;4912645;29;20034;-94
2023/05/21 08:35:15;;;;;;;6.85;3.85;;;;;;;19.52;52.03;99183.09;4913190;29;20027;-96
2023/05/21 08:37:41;;;;;;;7.47;3.90;;;;;;;19.68;51.81;99199.72;4912058;29;20027;-96
2023/05/21 08:40:08;;;;;;;6.25;4.20;;;;;;;19.73;51.97;99202.25;4912338;29;20417;-96
2023/05/21 08:42:47;;;;;;;8.93;4.35;;;;;;;20.02;52.23;99216.16;4911952;29;20051;-96
2023/05/21 08:45:13;;;;;;;5.47;4.10;;;;;;;20.03;51.89;99199.44;4944931;29;20122;-95
2023/05/21 08:47:42;;;;;;;7.43;4.40;;;;;;;20.11;52.74;99209.50;4912894;29;20099;-94
2023/05/21 08:50:18;;;;;;;9.70;4.40;;;;;;;20.32;53.39;99217.66;4928675;29;20027;-95
2023/05/21 08:52:43;;;;;;;4.80;3.90;;;;;;;20.28;53.51;99207.72;4913617;29;20039;-96
2023/05/21 08:55:10;;;;;;;7.55;4.15;;;;;;;20.33;49.97;99202.03;4910828;29;20561;-96
2023/05/21 08:57:35;;;;;;;8.35;4.25;;;;;;;20.45;50.00;99213.00;4926356;29;20038;-95
2023/05/21 09:00:01;;;;;;;6.15;3.75;;;;;;;20.32;50.50;99206.72;4912246;29;20094;-94
2023/05/21 09:02:29;;;;;;;6.82;4.13;;;;;;;20.54;50.65;99201.97;4927189;29;20035;-95
2023/05/21 09:04:56;;;;;;;5.63;4.18;;;;;;;20.52;51.27;99201.50;4943700;29;20405;-93
2023/05/21 09:07:28;;;;;;;8.40;5.32;;;;;;;20.66;51.60;99232.13;4927346;29;20575;-94
2023/05/21 09:10:02;;;;;;;6.70;4.43;;;;;;;20.60;49.44;99219.78;4927031;29;20406;-90
2023/05/21 09:12:28;;;;;;;22.10;12.52;;;;;;;20.96;49.70;99224.53;4941998;29;20122;-92
2023/05/21 09:14:53;;;;;;;10.70;4.13;;;;;;;21.26;48.58;99231.72;4957557;29;20023;-93
2023/05/21 09:17:19;;;;;;;11.18;3.60;;;;;;;21.29;47.28;99234.56;4926968;29;20023;-95
2023/05/21 09:20:06;;;;;;;6.05;3.78;;;;;;;21.50;46.27;99237.19;4910493;29;20034;-95
2023/05/21 09:22:32;;;;;;;7.55;3.58;;;;;;;21.48;44.68;99222.22;4942178;29;20126;-95
2023/05/21 09:24:57;;;;;;;7.72;3.90;;;;;;;21.51;44.33;99218.81;4927990;29;20469;-96
2023/05/21 09:27:23;;;;;;;4.57;3.35;;;;;;;21.67;44.68;99230.66;4942038;29;20031;-96
2023/05/21 09:29:49;;;;;;;6.50;3.80;;;;;;;21.49;43.88;99218.34;4942756;29;20055;-95
2023/05/21 09:32:14;;;;;;;5.75;3.67;;;;;;;21.69;44.35;99222.09;4926072;29;20038;-93
2023/05/21 09:34:40;;;;;;;6.63;3.25;;;;;;;21.89;43.39;99231.25;4925873;29;20058;-94
2023/05/21 09:37:06;;;;;;;7.45;3.50;;;;;;;22.05;44.20;99226.63;4942405;29;20078;-95
2023/05/21 09:39:32;;;;;;;6.18;3.47;;;;;;;21.99;43.47;99209.63;4925175;29;20544;-94
2023/05/21 09:41:57;;;;;;;5.88;4.18;;;;;;;22.20;43.11;99211.38;4941644;29;20477;-95
2023/05/21 09:44:23;;;;;;;12.68;4.82;;;;;;;22.09;43.30;99216.56;4958222;29;20036;-95
2023/05/21 09:46:48;;;;;;;6.85;4.15;;;;;;;22.25;44.04;99211.16;4925587;29;20508;-94
2023/05/21 09:49:24;;;;;;;7.95;4.20;;;;;;;22.34;43.32;99202.78;4957943;29;20109;-94
2023/05/21 09:51:54;;;;;;;8.40;3.70;;;;;;;22.48;43.06;99207.84;4910443;29;20099;-94
2023/05/21 09:54:19;;;;;;;6.53;3.25;;;;;;;22.48;43.50;99214.13;4926404;29;20410;-95
2023/05/21 09:56:45;;;;;;;8.82;3.60;;;;;;;22.73;42.77;99206.53;4925003;29;20034;-94
2023/05/21 09:59:10;;;;;;;5.85;3.47;;;;;;;22.68;43.07;99200.50;4924024;29;20027;-94
2023/05/21 10:01:37;;;;;;;7.75;3.80;;;;;;;22.77;43.15;99204.66;4941099;29;20023;-93
2023/05/21 10:04:05;;;;;;;4.57;3.20;;;;;;;23.06;42.41;99202.66;4924560;29;20042;-95
2023/05/21 10:06:32;;;;;;;4.68;3.40;;;;;;;23.23;42.85;99208.91;4910528;28;20121;-95
2023/05/21 10:09:02;;;;;;;6.97;3.47;;;;;;;23.33;43.40;99208.34;4927054;29;20066;-95
2023/05/21 10:11:29;;;;;;;4.43;3.47;;;;;;;23.51;41.69;99201.31;4910968;29;20122;-94
2023/05/21 10:14:07;;;;;;;9.32;3.60;;;;;;;23.32;41.54;99188.31;4914041;29;20138;-94
2023/05/21 10:16:33;;;;;;;6.18;3.45;;;;;;;23.44;42.14;99214.88;4927382;29;20086;-95
2023/05/21 10:18:59;;;;;;;5.13;3.65;;;;;;;23.56;41.45;99214.75;4929488;29;20110;-94
2023/05/21 10:21:25;;;;;;;6.82;3.55;;;;;;;23.53;41.92;99210.00;4909005;29;20125;-93
2023/05/21 10:23:51;;;;;;;6.68;3.58;;;;;;;23.25;43.24;99204.66;4925506;29;20031;-93
2023/05/21 10:26:18;;;;;;;7.05;3.67;;;;;;;23.29;44.04;99202.00;4925130;29;20027;-95
2023/05/21 10:28:44;;;;;;;5.13;3.70;;;;;;;23.12;43.53;99192.97;4924520;29;20553;-94
2023/05/21 10:31:10;;;;;;;6.93;3.70;;;;;;;22.93;44.48;99187.38;4908965;29;20038;-94
2023/05/21 10:33:36;;;;;;;7.97;3.83;;;;;;;22.96;44.13;99194.91;4925038;29;20031;-94
2023/05/21 10:36:01;;;;;;;11.30;3.78;;;;;;;22.91;44.75;99179.50;4909282;29;20039;-94
2023/05/21 10:38:27;;;;;;;5.88;3.55;;;;;;;22.99;43.78;99180.47;4925480;29;20454;-95
2023/05/21 10:40:52;;;;;;;5.15;3.67;;;;;;;23.02;43.69;99179.78;4940738;29;20035;-93
2023/05/21 10:43:34;;;;;;;8.48;3.85;;;;;;;23.27;44.39;99198.81;4926097;29;20050;-94
2023/05/21 10:46:05;;;;;;;8.20;3.90;;;;;;;23.54;44.51;99191.53;4925966;29;20544;-94
2023/05/21 10:48:37;;;;;;;7.65;4.03;;;;;;;23.58;43.40;99189.66;4958727;29;20485;-94
2023/05/21 10:51:17;;;;;;;;;;;;;;;23.69;42.50;99190.69;4958861;29;20042;-93
2023/05/21 10:53:55;;;;;;;6.97;3.53;;;;;;;23.66;43.15;99172.16;4958767;29;20431;-94
2023/05/21 10:56:39;;;;;;;5.82;3.90;;;;;;;23.81;42.87;99176.03;4940261;29;20082;-95
2023/05/21 10:59:07;;;;;;;6.30;4.20;;;;;;;23.74;42.73;99167.59;4928203;29;20058;-95
2023/05/21 11:01:35;;;;;;;11.45;3.75;;;;;;;23.57;43.12;99163.31;4941078;29;20030;-95
2023/05/21 11:04:02;;;;;;;5.20;3.80;;;;;;;23.59;42.82;99166.50;4941601;29;20504;-93
2023/05/21 11:06:27;;;;;;;12.48;4.22;;;;;;;23.59;42.50;99161.81;4925870;29;20015;-94
2023/05/21 11:08:53;;;;;;;7.00;3.50;;;;;;;23.72;42.57;99156.97;4940464;29;20039;-94
2023/05/21 11:11:44;;;;;;;7.13;3.67;;;;;;;23.83;42.32;99172.94;4941426;29;20031;-94
2023/05/21 11:14:55;;;;;;;5.85;3.80;;;;;;;23.82;42.67;99174.84;4956875;29;20513;-94
2023/05/21 11:17:39;;;;;;;4.95;3.20;;;;;;;23.69;39.74;99154.94;4922000;29;20565;-95
2023/05/21 11:20:10;;;;;;;7.68;3.75;;;;;;;23.82;40.05;99152.88;4924138;29;20098;-94
2023/05/21 11:22:36;;;;;;;5.28;3.05;;;;;;;23.66;41.19;99150.19;4923542;29;20052;-94
2023/05/21 11:25:02;;;;;;;7.38;3.47;;;;;;;23.59;41.31;99141.78;4906398;29;20070;-90
2023/05/21 11:27:35;;;;;;;7.53;3.60;;;;;;;23.57;40.67;99146.84;4907433;29;20033;-90